sensor_id;sensor_type;location;lat;lon;timestamp;temperature;humidity
37322;DHT22;23697;48.684;9.032;2023-04-06T00:00:00;0.10;71.30
37322;DHT22;23697;48.684;9.032;2023-04-06T00:02:27;0.10;71.40
37322;DHT22;23697;48.684;9.032;2023-04-06T00:04:54;0.10;71.50
37322;DHT22;23697;48.684;9.032;2023-04-06T00:07:21;-3276.60;71.90
37322;DHT22;23697;48.684;9.032;2023-04-06T00:09:49;-3276.60;72.00
37322;DHT22;23697;48.684;9.032;2023-04-06T00:12:16;-3276.50;72.00
37322;DHT22;23697;48.684;9.032;2023-04-06T00:14:42;-3276.50;72.20
37322;DHT22;23697;48.684;9.032;2023-04-06T00:17:12;-3276.50;72.50
37322;DHT22;23697;48.684;9.032;2023-04-06T00:19:39;-3276.40;72.60
37322;DHT22;23697;48.684;9.032;2023-04-06T00:22:05;-3276.40;72.90
37322;DHT22;23697;48.684;9.032;2023-04-06T00:24:32;-3276.30;72.90
37322;DHT22;23697;48.684;9.032;2023-04-06T00:27:00;-3276.30;72.90
37322;DHT22;23697;48.684;9.032;2023-04-06T00:29:27;-3276.30;73.20
37322;DHT22;23697;48.684;9.032;2023-04-06T00:31:54;-3276.30;73.40
37322;DHT22;23697;48.684;9.032;2023-04-06T00:34:20;-3276.30;73.20
37322;DHT22;23697;48.684;9.032;2023-04-06T00:36:47;-3276.30;73.20
37322;DHT22;23697;48.684;9.032;2023-04-06T00:39:14;-3276.30;73.60
37322;DHT22;23697;48.684;9.032;2023-04-06T00:41:41;-3276.30;73.60
37322;DHT22;23697;48.684;9.032;2023-04-06T00:44:13;-3276.30;73.80
37322;DHT22;23697;48.684;9.032;2023-04-06T00:46:40;-3276.30;73.80
37322;DHT22;23697;48.684;9.032;2023-04-06T00:49:07;-3276.30;73.80
37322;DHT22;23697;48.684;9.032;2023-04-06T00:51:34;-3276.30;74.20
37322;DHT22;23697;48.684;9.032;2023-04-06T00:54:00;-3276.30;74.20
37322;DHT22;23697;48.684;9.032;2023-04-06T00:56:27;-3276.30;74.00
37322;DHT22;23697;48.684;9.032;2023-04-06T00:58:54;-3276.30;73.90
37322;DHT22;23697;48.684;9.032;2023-04-06T01:01:22;-3276.20;73.90
37322;DHT22;23697;48.684;9.032;2023-04-06T01:03:49;-3276.20;74.10
37322;DHT22;23697;48.684;9.032;2023-04-06T01:06:16;-3276.10;74.30
37322;DHT22;23697;48.684;9.032;2023-04-06T01:08:42;-3276.20;74.50
37322;DHT22;23697;48.684;9.032;2023-04-06T01:11:09;-3276.20;74.70
37322;DHT22;23697;48.684;9.032;2023-04-06T01:13:36;-3276.20;74.70
37322;DHT22;23697;48.684;9.032;2023-04-06T01:16:03;-3276.10;74.60
37322;DHT22;23697;48.684;9.032;2023-04-06T01:18:32;-3276.10;74.50
37322;DHT22;23697;48.684;9.032;2023-04-06T01:20:59;-3276.10;74.70
37322;DHT22;23697;48.684;9.032;2023-04-06T01:23:28;-3276.00;74.90
37322;DHT22;23697;48.684;9.032;2023-04-06T01:25:54;-3276.00;75.00
37322;DHT22;23697;48.684;9.032;2023-04-06T01:28:21;-3276.00;75.00
37322;DHT22;23697;48.684;9.032;2023-04-06T01:30:48;-3275.90;75.20
37322;DHT22;23697;48.684;9.032;2023-04-06T01:33:14;-3275.90;75.40
37322;DHT22;23697;48.684;9.032;2023-04-06T01:35:41;-3275.90;75.80
37322;DHT22;23697;48.684;9.032;2023-04-06T01:38:08;-3275.80;75.80
37322;DHT22;23697;48.684;9.032;2023-04-06T01:40:36;-3275.80;76.00
37322;DHT22;23697;48.684;9.032;2023-04-06T01:43:03;-3275.80;76.20
37322;DHT22;23697;48.684;9.032;2023-04-06T01:45:30;-3275.80;76.30
37322;DHT22;23697;48.684;9.032;2023-04-06T01:47:57;-3275.70;76.50
37322;DHT22;23697;48.684;9.032;2023-04-06T01:50:23;-3275.70;76.60
37322;DHT22;23697;48.684;9.032;2023-04-06T01:52:50;-3275.80;76.70
37322;DHT22;23697;48.684;9.032;2023-04-06T01:55:17;-3275.80;76.70
37322;DHT22;23697;48.684;9.032;2023-04-06T01:57:45;-3275.80;76.70
37322;DHT22;23697;48.684;9.032;2023-04-06T02:00:12;-3275.80;76.50
37322;DHT22;23697;48.684;9.032;2023-04-06T02:02:39;-3275.70;76.40
37322;DHT22;23697;48.684;9.032;2023-04-06T02:05:07;-3275.70;76.60
37322;DHT22;23697;48.684;9.032;2023-04-06T02:07:34;-3275.70;76.60
37322;DHT22;23697;48.684;9.032;2023-04-06T02:10:00;-3275.70;76.60
37322;DHT22;23697;48.684;9.032;2023-04-06T02:12:27;-3275.60;76.60
37322;DHT22;23697;48.684;9.032;2023-04-06T02:14:55;-3275.60;77.00
37322;DHT22;23697;48.684;9.032;2023-04-06T02:17:22;-3275.50;77.20
37322;DHT22;23697;48.684;9.032;2023-04-06T02:19:49;-3275.50;77.30
37322;DHT22;23697;48.684;9.032;2023-04-06T02:22:15;-3275.50;77.50
37322;DHT22;23697;48.684;9.032;2023-04-06T02:24:42;-3275.50;77.40
37322;DHT22;23697;48.684;9.032;2023-04-06T02:27:09;-3275.50;77.30
37322;DHT22;23697;48.684;9.032;2023-04-06T02:29:36;-3275.50;77.40
37322;DHT22;23697;48.684;9.032;2023-04-06T02:32:04;-3275.40;77.50
37322;DHT22;23697;48.684;9.032;2023-04-06T02:34:31;-3275.40;77.80
37322;DHT22;23697;48.684;9.032;2023-04-06T02:36:58;-3275.40;78.00
37322;DHT22;23697;48.684;9.032;2023-04-06T02:39:24;-3275.30;78.10
37322;DHT22;23697;48.684;9.032;2023-04-06T02:41:51;-3275.40;78.20
37322;DHT22;23697;48.684;9.032;2023-04-06T02:44:18;-3275.40;78.30
37322;DHT22;23697;48.684;9.032;2023-04-06T02:46:45;-3275.40;78.40
37322;DHT22;23697;48.684;9.032;2023-04-06T02:49:13;-3275.30;78.30
37322;DHT22;23697;48.684;9.032;2023-04-06T02:51:40;-3275.30;78.50
37322;DHT22;23697;48.684;9.032;2023-04-06T02:54:06;-3275.30;78.60
37322;DHT22;23697;48.684;9.032;2023-04-06T02:56:33;-3275.20;78.60
37322;DHT22;23697;48.684;9.032;2023-04-06T02:59:00;-3275.20;78.60
37322;DHT22;23697;48.684;9.032;2023-04-06T03:01:26;-3275.30;78.70
37322;DHT22;23697;48.684;9.032;2023-04-06T03:03:53;-3275.20;78.80
37322;DHT22;23697;48.684;9.032;2023-04-06T03:06:21;-3275.20;78.80
37322;DHT22;23697;48.684;9.032;2023-04-06T03:08:52;-3275.20;78.90
37322;DHT22;23697;48.684;9.032;2023-04-06T03:11:19;-3275.20;78.80
37322;DHT22;23697;48.684;9.032;2023-04-06T03:13:46;-3275.10;78.80
37322;DHT22;23697;48.684;9.032;2023-04-06T03:16:13;-3275.10;78.90
37322;DHT22;23697;48.684;9.032;2023-04-06T03:18:39;-3275.10;78.90
37322;DHT22;23697;48.684;9.032;2023-04-06T03:21:06;-3275.10;79.10
37322;DHT22;23697;48.684;9.032;2023-04-06T03:23:34;-3275.00;79.30
37322;DHT22;23697;48.684;9.032;2023-04-06T03:26:01;-3275.10;79.20
37322;DHT22;23697;48.684;9.032;2023-04-06T03:28:28;-3275.00;79.10
37322;DHT22;23697;48.684;9.032;2023-04-06T03:30:55;-3275.00;79.10
37322;DHT22;23697;48.684;9.032;2023-04-06T03:33:21;-3275.10;79.20
37322;DHT22;23697;48.684;9.032;2023-04-06T03:36:05;-3275.00;79.20
37322;DHT22;23697;48.684;9.032;2023-04-06T03:38:34;-3275.00;79.20
37322;DHT22;23697;48.684;9.032;2023-04-06T03:41:01;-3275.00;79.40
37322;DHT22;23697;48.684;9.032;2023-04-06T03:43:27;-3274.90;79.60
37322;DHT22;23697;48.684;9.032;2023-04-06T03:45:54;-3274.90;79.60
37322;DHT22;23697;48.684;9.032;2023-04-06T03:48:21;-3274.90;79.70
37322;DHT22;23697;48.684;9.032;2023-04-06T03:50:48;-3274.90;79.70
37322;DHT22;23697;48.684;9.032;2023-04-06T03:53:15;-3274.80;79.60
37322;DHT22;23697;48.684;9.032;2023-04-06T03:55:43;-3274.80;79.50
37322;DHT22;23697;48.684;9.032;2023-04-06T03:58:10;-3274.80;79.60
37322;DHT22;23697;48.684;9.032;2023-04-06T04:00:37;-3274.80;79.80
37322;DHT22;23697;48.684;9.032;2023-04-06T04:03:03;-3274.70;80.00
37322;DHT22;23697;48.684;9.032;2023-04-06T04:05:30;-3274.70;80.30
37322;DHT22;23697;48.684;9.032;2023-04-06T04:07:58;-3274.70;80.30
37322;DHT22;23697;48.684;9.032;2023-04-06T04:10:43;-3274.70;80.10
37322;DHT22;23697;48.684;9.032;2023-04-06T04:13:11;-3274.70;80.10
37322;DHT22;23697;48.684;9.032;2023-04-06T04:15:38;-3274.70;80.10
37322;DHT22;23697;48.684;9.032;2023-04-06T04:18:05;-3274.70;80.40
37322;DHT22;23697;48.684;9.032;2023-04-06T04:20:33;-3274.70;80.60
37322;DHT22;23697;48.684;9.032;2023-04-06T04:23:00;-3274.70;80.60
37322;DHT22;23697;48.684;9.032;2023-04-06T04:25:28;-3274.70;80.60
37322;DHT22;23697;48.684;9.032;2023-04-06T04:27:57;-3274.60;80.60
37322;DHT22;23697;48.684;9.032;2023-04-06T04:30:27;-3274.60;80.60
37322;DHT22;23697;48.684;9.032;2023-04-06T04:32:54;-3274.50;80.50
37322;DHT22;23697;48.684;9.032;2023-04-06T04:35:21;-3274.60;80.50
37322;DHT22;23697;48.684;9.032;2023-04-06T04:37:48;-3274.60;80.50
37322;DHT22;23697;48.684;9.032;2023-04-06T04:40:14;-3274.60;80.40
37322;DHT22;23697;48.684;9.032;2023-04-06T04:42:42;-3274.50;80.40
37322;DHT22;23697;48.684;9.032;2023-04-06T04:45:11;-3274.50;80.30
37322;DHT22;23697;48.684;9.032;2023-04-06T04:47:39;-3274.50;80.40
37322;DHT22;23697;48.684;9.032;2023-04-06T04:50:06;-3274.50;80.50
37322;DHT22;23697;48.684;9.032;2023-04-06T04:52:33;-3274.50;80.70
37322;DHT22;23697;48.684;9.032;2023-04-06T04:55:01;-3274.50;80.90
37322;DHT22;23697;48.684;9.032;2023-04-06T04:57:28;-3274.50;80.90
37322;DHT22;23697;48.684;9.032;2023-04-06T04:59:55;-3274.50;80.80
37322;DHT22;23697;48.684;9.032;2023-04-06T05:02:28;-3274.50;80.80
37322;DHT22;23697;48.684;9.032;2023-04-06T05:04:55;-3274.50;81.00
37322;DHT22;23697;48.684;9.032;2023-04-06T05:07:22;-3274.50;81.10
37322;DHT22;23697;48.684;9.032;2023-04-06T05:09:50;-3274.50;81.10
37322;DHT22;23697;48.684;9.032;2023-04-06T05:12:20;-3274.50;81.10
37322;DHT22;23697;48.684;9.032;2023-04-06T05:14:47;-3274.60;81.00
37322;DHT22;23697;48.684;9.032;2023-04-06T05:17:14;-3274.60;80.90
37322;DHT22;23697;48.684;9.032;2023-04-06T05:19:45;-3274.60;80.80
37322;DHT22;23697;48.684;9.032;2023-04-06T05:22:13;-3274.70;80.80
37322;DHT22;23697;48.684;9.032;2023-04-06T05:24:41;-3274.70;80.90
37322;DHT22;23697;48.684;9.032;2023-04-06T05:27:08;-3274.60;81.10
37322;DHT22;23697;48.684;9.032;2023-04-06T05:29:35;-3274.80;81.20
37322;DHT22;23697;48.684;9.032;2023-04-06T05:32:02;-3274.80;81.20
37322;DHT22;23697;48.684;9.032;2023-04-06T05:34:29;-3274.80;81.30
37322;DHT22;23697;48.684;9.032;2023-04-06T05:36:57;-3274.90;81.30
37322;DHT22;23697;48.684;9.032;2023-04-06T05:39:24;-3274.90;81.30
37322;DHT22;23697;48.684;9.032;2023-04-06T05:41:51;-3275.00;81.30
37322;DHT22;23697;48.684;9.032;2023-04-06T05:44:18;-3275.10;81.20
37322;DHT22;23697;48.684;9.032;2023-04-06T05:46:45;-3275.30;81.10
37322;DHT22;23697;48.684;9.032;2023-04-06T05:49:12;-3275.30;80.90
37322;DHT22;23697;48.684;9.032;2023-04-06T05:51:38;-3275.40;80.70
37322;DHT22;23697;48.684;9.032;2023-04-06T05:54:07;-3275.50;80.60
37322;DHT22;23697;48.684;9.032;2023-04-06T05:56:33;-3275.50;80.40
37322;DHT22;23697;48.684;9.032;2023-04-06T05:59:00;-3275.60;80.40
37322;DHT22;23697;48.684;9.032;2023-04-06T06:01:27;-3275.70;80.30
37322;DHT22;23697;48.684;9.032;2023-04-06T06:03:54;-3275.80;80.20
37322;DHT22;23697;48.684;9.032;2023-04-06T06:06:21;-3275.80;80.00
37322;DHT22;23697;48.684;9.032;2023-04-06T06:08:47;-3276.00;79.80
37322;DHT22;23697;48.684;9.032;2023-04-06T06:11:15;-3276.00;79.70
37322;DHT22;23697;48.684;9.032;2023-04-06T06:13:42;-3276.20;79.40
37322;DHT22;23697;48.684;9.032;2023-04-06T06:16:09;-3276.30;79.20
37322;DHT22;23697;48.684;9.032;2023-04-06T06:18:36;-3276.50;79.00
37322;DHT22;23697;48.684;9.032;2023-04-06T06:21:03;-3276.60;78.70
37322;DHT22;23697;48.684;9.032;2023-04-06T06:23:29;0.10;78.40
37322;DHT22;23697;48.684;9.032;2023-04-06T06:25:56;0.10;77.90
37322;DHT22;23697;48.684;9.032;2023-04-06T06:28:24;0.20;77.80
37322;DHT22;23697;48.684;9.032;2023-04-06T06:30:51;0.30;77.60
37322;DHT22;23697;48.684;9.032;2023-04-06T06:33:18;0.40;77.30
37322;DHT22;23697;48.684;9.032;2023-04-06T06:35:45;0.60;76.70
37322;DHT22;23697;48.684;9.032;2023-04-06T06:38:14;0.70;76.00
37322;DHT22;23697;48.684;9.032;2023-04-06T06:40:41;0.90;75.50
37322;DHT22;23697;48.684;9.032;2023-04-06T06:43:08;1.00;74.90
37322;DHT22;23697;48.684;9.032;2023-04-06T06:45:36;1.20;74.10
37322;DHT22;23697;48.684;9.032;2023-04-06T06:48:03;1.40;73.00
37322;DHT22;23697;48.684;9.032;2023-04-06T06:50:30;1.60;72.20
37322;DHT22;23697;48.684;9.032;2023-04-06T06:52:56;1.80;71.60
37322;DHT22;23697;48.684;9.032;2023-04-06T06:55:23;1.90;71.30
37322;DHT22;23697;48.684;9.032;2023-04-06T06:57:50;2.10;70.00
37322;DHT22;23697;48.684;9.032;2023-04-06T07:00:17;2.40;69.20
37322;DHT22;23697;48.684;9.032;2023-04-06T07:02:47;2.60;68.80
37322;DHT22;23697;48.684;9.032;2023-04-06T07:05:14;2.90;68.10
37322;DHT22;23697;48.684;9.032;2023-04-06T07:07:41;3.10;66.50
37322;DHT22;23697;48.684;9.032;2023-04-06T07:10:09;3.20;65.40
37322;DHT22;23697;48.684;9.032;2023-04-06T07:12:39;3.40;65.70
37322;DHT22;23697;48.684;9.032;2023-04-06T07:15:06;3.60;65.50
37322;DHT22;23697;48.684;9.032;2023-04-06T07:17:33;3.90;64.00
37322;DHT22;23697;48.684;9.032;2023-04-06T07:20:01;4.10;63.60
37322;DHT22;23697;48.684;9.032;2023-04-06T07:22:28;4.40;63.20
37322;DHT22;23697;48.684;9.032;2023-04-06T07:28:08;5.00;60.50
37322;DHT22;23697;48.684;9.032;2023-04-06T07:33:57;5.70;58.30
37322;DHT22;23697;48.684;9.032;2023-04-06T07:36:32;6.10;57.30
37322;DHT22;23697;48.684;9.032;2023-04-06T07:39:06;6.50;57.10
37322;DHT22;23697;48.684;9.032;2023-04-06T07:41:36;6.80;56.30
37322;DHT22;23697;48.684;9.032;2023-04-06T07:44:22;7.10;55.10
37322;DHT22;23697;48.684;9.032;2023-04-06T07:48:57;7.40;52.40
37322;DHT22;23697;48.684;9.032;2023-04-06T07:49:37;7.50;53.30
37322;DHT22;23697;48.684;9.032;2023-04-06T07:52:08;7.80;51.80
37322;DHT22;23697;48.684;9.032;2023-04-06T07:54:35;8.10;51.30
37322;DHT22;23697;48.684;9.032;2023-04-06T07:57:06;8.20;50.40
37322;DHT22;23697;48.684;9.032;2023-04-06T07:59:36;8.50;50.20
37322;DHT22;23697;48.684;9.032;2023-04-06T08:02:22;8.80;49.20
37322;DHT22;23697;48.684;9.032;2023-04-06T08:04:58;9.00;50.10
37322;DHT22;23697;48.684;9.032;2023-04-06T08:07:30;9.10;48.30
37322;DHT22;23697;48.684;9.032;2023-04-06T08:09:57;9.30;46.50
37322;DHT22;23697;48.684;9.032;2023-04-06T08:12:23;9.10;44.70
37322;DHT22;23697;48.684;9.032;2023-04-06T08:14:50;9.20;46.60
37322;DHT22;23697;48.684;9.032;2023-04-06T08:17:23;9.60;47.20
37322;DHT22;23697;48.684;9.032;2023-04-06T08:20:01;9.70;44.10
37322;DHT22;23697;48.684;9.032;2023-04-06T08:25:33;9.70;42.60
37322;DHT22;23697;48.684;9.032;2023-04-06T08:28:43;10.10;42.90
37322;DHT22;23697;48.684;9.032;2023-04-06T08:31:20;10.30;41.30
37322;DHT22;23697;48.684;9.032;2023-04-06T08:34:37;10.60;41.40
37322;DHT22;23697;48.684;9.032;2023-04-06T08:37:06;10.90;42.40
37322;DHT22;23697;48.684;9.032;2023-04-06T08:39:47;11.20;38.80
37322;DHT22;23697;48.684;9.032;2023-04-06T08:42:27;11.40;41.10
37322;DHT22;23697;48.684;9.032;2023-04-06T08:45:08;11.60;40.50
37322;DHT22;23697;48.684;9.032;2023-04-06T08:47:38;11.60;39.10
37322;DHT22;23697;48.684;9.032;2023-04-06T08:50:06;11.70;38.60
37322;DHT22;23697;48.684;9.032;2023-04-06T08:52:34;11.60;38.80
37322;DHT22;23697;48.684;9.032;2023-04-06T08:55:01;11.90;39.80
37322;DHT22;23697;48.684;9.032;2023-04-06T08:57:29;12.10;38.90
37322;DHT22;23697;48.684;9.032;2023-04-06T09:00:00;12.40;39.00
37322;DHT22;23697;48.684;9.032;2023-04-06T09:02:27;12.40;38.50
37322;DHT22;23697;48.684;9.032;2023-04-06T09:04:54;12.70;38.60
37322;DHT22;23697;48.684;9.032;2023-04-06T09:07:21;12.70;36.10
37322;DHT22;23697;48.684;9.032;2023-04-06T09:09:58;12.80;36.30
37322;DHT22;23697;48.684;9.032;2023-04-06T09:12:44;13.10;37.30
37322;DHT22;23697;48.684;9.032;2023-04-06T09:25:30;13.60;35.10
37322;DHT22;23697;48.684;9.032;2023-04-06T09:28:00;13.50;35.00
37322;DHT22;23697;48.684;9.032;2023-04-06T09:30:27;13.60;35.40
37322;DHT22;23697;48.684;9.032;2023-04-06T09:32:59;13.60;32.00
37322;DHT22;23697;48.684;9.032;2023-04-06T09:35:31;13.60;33.40
37322;DHT22;23697;48.684;9.032;2023-04-06T09:38:10;13.50;32.10
37322;DHT22;23697;48.684;9.032;2023-04-06T09:40:51;13.50;33.00
37322;DHT22;23697;48.684;9.032;2023-04-06T09:43:34;13.30;31.90
37322;DHT22;23697;48.684;9.032;2023-04-06T09:46:01;13.10;31.60
37322;DHT22;23697;48.684;9.032;2023-04-06T09:48:30;13.00;31.70
37322;DHT22;23697;48.684;9.032;2023-04-06T09:50:58;12.70;31.50
37322;DHT22;23697;48.684;9.032;2023-04-06T09:53:26;12.80;33.70
37322;DHT22;23697;48.684;9.032;2023-04-06T09:55:53;13.10;34.40
37322;DHT22;23697;48.684;9.032;2023-04-06T09:58:23;13.40;33.80
37322;DHT22;23697;48.684;9.032;2023-04-06T10:00:54;13.60;32.10
37322;DHT22;23697;48.684;9.032;2023-04-06T10:03:26;13.70;32.60
37322;DHT22;23697;48.684;9.032;2023-04-06T10:06:01;13.90;33.20
37322;DHT22;23697;48.684;9.032;2023-04-06T10:08:30;14.10;30.90
37322;DHT22;23697;48.684;9.032;2023-04-06T10:11:00;13.80;30.50
37322;DHT22;23697;48.684;9.032;2023-04-06T10:13:30;13.50;31.30
37322;DHT22;23697;48.684;9.032;2023-04-06T10:15:58;13.40;32.90
37322;DHT22;23697;48.684;9.032;2023-04-06T10:18:28;13.60;32.90
37322;DHT22;23697;48.684;9.032;2023-04-06T10:21:00;13.60;33.30
37322;DHT22;23697;48.684;9.032;2023-04-06T10:23:29;13.70;32.90
37322;DHT22;23697;48.684;9.032;2023-04-06T10:26:12;13.90;33.10
37322;DHT22;23697;48.684;9.032;2023-04-06T10:28:41;14.10;32.00
37322;DHT22;23697;48.684;9.032;2023-04-06T10:31:11;14.20;32.10
37322;DHT22;23697;48.684;9.032;2023-04-06T10:33:57;14.30;29.90
37322;DHT22;23697;48.684;9.032;2023-04-06T10:46:05;14.10;30.20
37322;DHT22;23697;48.684;9.032;2023-04-06T11:06:55;14.60;32.00
37322;DHT22;23697;48.684;9.032;2023-04-06T11:09:23;14.80;31.80
37322;DHT22;23697;48.684;9.032;2023-04-06T11:13:38;15.10;30.60
37322;DHT22;23697;48.684;9.032;2023-04-06T11:18:17;15.00;30.70
37322;DHT22;23697;48.684;9.032;2023-04-06T11:21:09;14.90;28.20
37322;DHT22;23697;48.684;9.032;2023-04-06T11:26:30;14.80;31.40
37322;DHT22;23697;48.684;9.032;2023-04-06T11:30:56;14.90;28.70
37322;DHT22;23697;48.684;9.032;2023-04-06T11:32:41;14.90;31.80
37322;DHT22;23697;48.684;9.032;2023-04-06T11:35:41;14.80;28.60
37322;DHT22;23697;48.684;9.032;2023-04-06T11:40:57;14.20;29.90
37322;DHT22;23697;48.684;9.032;2023-04-06T11:46:52;14.10;28.50
37322;DHT22;23697;48.684;9.032;2023-04-06T11:49:36;13.90;29.30
37322;DHT22;23697;48.684;9.032;2023-04-06T11:52:19;14.10;31.00
37322;DHT22;23697;48.684;9.032;2023-04-06T12:00:48;14.60;30.90
37322;DHT22;23697;48.684;9.032;2023-04-06T12:03:19;14.80;31.30
37322;DHT22;23697;48.684;9.032;2023-04-06T12:05:46;14.90;28.60
37322;DHT22;23697;48.684;9.032;2023-04-06T12:08:13;15.10;31.70
37322;DHT22;23697;48.684;9.032;2023-04-06T12:10:39;15.20;31.60
37322;DHT22;23697;48.684;9.032;2023-04-06T12:13:06;15.10;27.80
37322;DHT22;23697;48.684;9.032;2023-04-06T12:15:33;14.70;28.60
37322;DHT22;23697;48.684;9.032;2023-04-06T12:18:00;14.80;31.20
37322;DHT22;23697;48.684;9.032;2023-04-06T12:20:28;14.90;30.80
37322;DHT22;23697;48.684;9.032;2023-04-06T12:22:55;15.10;30.30
37322;DHT22;23697;48.684;9.032;2023-04-06T12:25:21;15.30;30.00
37322;DHT22;23697;48.684;9.032;2023-04-06T12:27:48;15.10;29.30
37322;DHT22;23697;48.684;9.032;2023-04-06T12:30:15;14.80;29.70
37322;DHT22;23697;48.684;9.032;2023-04-06T12:32:42;14.80;28.60
37322;DHT22;23697;48.684;9.032;2023-04-06T12:35:09;14.60;29.90
37322;DHT22;23697;48.684;9.032;2023-04-06T12:37:38;14.90;31.60
37322;DHT22;23697;48.684;9.032;2023-04-06T12:40:05;15.30;31.80
37322;DHT22;23697;48.684;9.032;2023-04-06T12:42:32;15.60;31.30
37322;DHT22;23697;48.684;9.032;2023-04-06T12:44:59;15.70;30.50
37322;DHT22;23697;48.684;9.032;2023-04-06T12:47:26;15.70;30.40
37322;DHT22;23697;48.684;9.032;2023-04-06T12:49:53;15.60;29.70
37322;DHT22;23697;48.684;9.032;2023-04-06T12:52:20;15.60;30.60
37322;DHT22;23697;48.684;9.032;2023-04-06T12:54:48;15.70;28.60
37322;DHT22;23697;48.684;9.032;2023-04-06T12:57:16;15.60;29.70
37322;DHT22;23697;48.684;9.032;2023-04-06T12:59:43;15.60;28.90
37322;DHT22;23697;48.684;9.032;2023-04-06T13:02:10;15.60;30.30
37322;DHT22;23697;48.684;9.032;2023-04-06T13:04:37;15.40;28.20
37322;DHT22;23697;48.684;9.032;2023-04-06T13:07:03;15.30;28.90
37322;DHT22;23697;48.684;9.032;2023-04-06T13:09:30;15.20;28.80
37322;DHT22;23697;48.684;9.032;2023-04-06T13:12:00;15.20;28.00
37322;DHT22;23697;48.684;9.032;2023-04-06T13:14:27;15.00;28.80
37322;DHT22;23697;48.684;9.032;2023-04-06T13:16:54;14.90;29.10
37322;DHT22;23697;48.684;9.032;2023-04-06T13:19:21;14.60;28.60
37322;DHT22;23697;48.684;9.032;2023-04-06T13:21:47;14.50;29.00
37322;DHT22;23697;48.684;9.032;2023-04-06T13:24:14;14.40;29.40
37322;DHT22;23697;48.684;9.032;2023-04-06T13:26:42;14.30;28.20
37322;DHT22;23697;48.684;9.032;2023-04-06T13:29:10;14.40;29.10
37322;DHT22;23697;48.684;9.032;2023-04-06T13:31:36;14.40;28.50
37322;DHT22;23697;48.684;9.032;2023-04-06T13:34:04;14.30;28.80
37322;DHT22;23697;48.684;9.032;2023-04-06T13:36:31;14.30;28.40
37322;DHT22;23697;48.684;9.032;2023-04-06T13:38:58;14.30;28.40
37322;DHT22;23697;48.684;9.032;2023-04-06T13:41:27;14.40;28.40
37322;DHT22;23697;48.684;9.032;2023-04-06T13:43:54;14.30;28.30
37322;DHT22;23697;48.684;9.032;2023-04-06T13:46:24;14.30;28.30
37322;DHT22;23697;48.684;9.032;2023-04-06T13:48:53;14.40;29.40
37322;DHT22;23697;48.684;9.032;2023-04-06T13:51:20;14.70;31.90
37322;DHT22;23697;48.684;9.032;2023-04-06T13:53:46;14.80;29.10
37322;DHT22;23697;48.684;9.032;2023-04-06T13:56:19;14.70;28.60
37322;DHT22;23697;48.684;9.032;2023-04-06T13:58:53;14.40;28.30
37322;DHT22;23697;48.684;9.032;2023-04-06T14:01:31;14.30;31.80
37322;DHT22;23697;48.684;9.032;2023-04-06T14:04:01;14.60;28.30
37322;DHT22;23697;48.684;9.032;2023-04-06T14:06:30;14.20;29.00
37322;DHT22;23697;48.684;9.032;2023-04-06T14:09:02;14.20;29.20
37322;DHT22;23697;48.684;9.032;2023-04-06T14:11:31;14.20;30.30
37322;DHT22;23697;48.684;9.032;2023-04-06T14:14:15;14.50;29.90
37322;DHT22;23697;48.684;9.032;2023-04-06T14:16:49;14.60;28.80
37322;DHT22;23697;48.684;9.032;2023-04-06T14:19:19;14.80;31.50
37322;DHT22;23697;48.684;9.032;2023-04-06T14:21:58;14.70;30.40
37322;DHT22;23697;48.684;9.032;2023-04-06T14:24:36;14.60;31.10
37322;DHT22;23697;48.684;9.032;2023-04-06T14:27:06;14.40;29.70
37322;DHT22;23697;48.684;9.032;2023-04-06T14:35:27;14.80;30.90
37322;DHT22;23697;48.684;9.032;2023-04-06T14:38:00;15.00;31.50
37322;DHT22;23697;48.684;9.032;2023-04-06T14:40:27;14.80;29.30
37322;DHT22;23697;48.684;9.032;2023-04-06T14:43:00;14.50;29.40
37322;DHT22;23697;48.684;9.032;2023-04-06T14:45:27;14.20;29.60
37322;DHT22;23697;48.684;9.032;2023-04-06T14:47:56;14.10;31.40
37322;DHT22;23697;48.684;9.032;2023-04-06T14:50:25;14.10;30.40
37322;DHT22;23697;48.684;9.032;2023-04-06T14:55:55;13.80;32.00
37322;DHT22;23697;48.684;9.032;2023-04-06T14:58:29;13.60;31.90
37322;DHT22;23697;48.684;9.032;2023-04-06T15:01:00;13.40;31.00
37322;DHT22;23697;48.684;9.032;2023-04-06T15:03:27;13.30;31.20
37322;DHT22;23697;48.684;9.032;2023-04-06T15:05:57;13.30;31.80
37322;DHT22;23697;48.684;9.032;2023-04-06T15:08:24;13.20;31.50
37322;DHT22;23697;48.684;9.032;2023-04-06T15:13:39;12.90;32.20
37322;DHT22;23697;48.684;9.032;2023-04-06T15:16:13;12.90;31.80
37322;DHT22;23697;48.684;9.032;2023-04-06T15:18:41;12.90;31.90
37322;DHT22;23697;48.684;9.032;2023-04-06T15:21:36;12.80;31.70
37322;DHT22;23697;48.684;9.032;2023-04-06T15:24:08;12.80;32.50
37322;DHT22;23697;48.684;9.032;2023-04-06T15:26:36;12.80;32.30
37322;DHT22;23697;48.684;9.032;2023-04-06T15:29:17;12.80;33.40
37322;DHT22;23697;48.684;9.032;2023-04-06T15:31:48;12.70;33.30
37322;DHT22;23697;48.684;9.032;2023-04-06T15:34:19;12.80;32.60
37322;DHT22;23697;48.684;9.032;2023-04-06T15:40:23;12.60;33.30
37322;DHT22;23697;48.684;9.032;2023-04-06T15:42:54;12.70;35.40
37322;DHT22;23697;48.684;9.032;2023-04-06T15:45:39;12.80;33.60
37322;DHT22;23697;48.684;9.032;2023-04-06T15:48:22;12.80;33.50
37322;DHT22;23697;48.684;9.032;2023-04-06T15:51:19;12.70;34.10
37322;DHT22;23697;48.684;9.032;2023-04-06T15:53:50;12.70;35.30
37322;DHT22;23697;48.684;9.032;2023-04-06T15:59:21;12.70;34.40
37322;DHT22;23697;48.684;9.032;2023-04-06T16:01:52;12.70;35.30
37322;DHT22;23697;48.684;9.032;2023-04-06T16:04:20;12.60;34.60
37322;DHT22;23697;48.684;9.032;2023-04-06T16:06:47;12.50;33.80
37322;DHT22;23697;48.684;9.032;2023-04-06T16:09:15;12.30;34.30
37322;DHT22;23697;48.684;9.032;2023-04-06T16:11:42;12.10;34.80
37322;DHT22;23697;48.684;9.032;2023-04-06T16:14:11;12.10;34.40
37322;DHT22;23697;48.684;9.032;2023-04-06T16:16:44;12.10;35.50
37322;DHT22;23697;48.684;9.032;2023-04-06T16:19:12;12.00;34.60
37322;DHT22;23697;48.684;9.032;2023-04-06T16:21:39;11.80;35.20
37322;DHT22;23697;48.684;9.032;2023-04-06T16:24:06;11.80;35.40
37322;DHT22;23697;48.684;9.032;2023-04-06T16:26:35;11.70;35.30
37322;DHT22;23697;48.684;9.032;2023-04-06T16:29:02;11.60;36.30
37322;DHT22;23697;48.684;9.032;2023-04-06T16:31:28;11.60;36.60
37322;DHT22;23697;48.684;9.032;2023-04-06T16:33:58;11.50;36.70
37322;DHT22;23697;48.684;9.032;2023-04-06T16:36:29;11.50;37.10
37322;DHT22;23697;48.684;9.032;2023-04-06T16:39:15;11.40;37.40
37322;DHT22;23697;48.684;9.032;2023-04-06T16:41:42;11.40;37.70
37322;DHT22;23697;48.684;9.032;2023-04-06T16:44:13;11.40;37.30
37322;DHT22;23697;48.684;9.032;2023-04-06T16:46:41;11.30;38.30
37322;DHT22;23697;48.684;9.032;2023-04-06T16:49:10;11.30;38.00
37322;DHT22;23697;48.684;9.032;2023-04-06T16:51:38;11.20;38.30
37322;DHT22;23697;48.684;9.032;2023-04-06T16:54:05;11.20;39.60